Date,TemperatureHighF,TemperatureAvgF,TemperatureLowF,DewpointHighF,DewpointAvgF,DewpointLowF,HumidityHigh,HumidityAvg,HumidityLow,PressureMaxIn,PressureMinIn,WindSpeedMaxMPH,WindSpeedAvgMPH,GustSpeedMaxMPH,PrecipitationSumIn
2013-1-1,59.5,52.8,46.6,46.5,37.5,16.3,80,59,22,30.24,30.09,10,2,13,0.00
2013-1-2,67.1,55.7,46.4,47.1,32.8,13.7,67,44,20,30.13,30.04,11,2,14,0.00
2013-1-3,68.4,53.6,45.1,53.7,39.5,25.9,82,61,26,30.19,30.05,5,1,6,0.00
2013-1-4,68.4,54.0,44.6,45.9,32.6,16.9,59,45,23,30.28,30.17,4,1,6,0.00
2013-1-5,64.9,53.0,44.6,50.4,42.1,29.3,90,67,44,30.29,30.19,4,1,5,0.00
2013-1-6,61.5,53.0,47.3,54.2,48.5,45.0,98,85,62,30.21,30.02,8,1,11,0.18
2013-1-7,66.0,53.8,45.1,50.7,43.9,28.9,98,72,25,30.10,29.99,10,2,13,0.00
2013-1-8,65.1,54.3,46.6,54.7,48.3,44.0,95,81,61,30.12,30.02,4,1,6,0.00
2013-1-9,64.4,55.4,49.6,56.3,51.3,46.3,95,86,71,30.14,30.03,10,1,12,0.00
2013-1-10,59.2,53.7,47.7,51.7,42.8,27.3,94,68,42,30.12,29.94,13,5,18,0.01
2013-1-11,58.8,50.3,43.9,38.0,28.7,20.4,60,44,32,30.20,30.07,8,3,14,0.00
2013-1-12,57.9,48.6,40.3,35.6,28.7,14.9,65,47,30,30.17,30.07,9,2,14,0.00
2013-1-13,59.4,49.7,42.1,39.2,28.5,14.9,65,45,24,30.16,30.07,12,3,15,0.00
2013-1-14,60.3,49.0,41.5,31.1,13.8,5.3,44,24,19,30.34,30.12,18,4,27,0.00
2013-1-15,61.9,50.1,40.6,38.0,25.9,7.3,64,40,21,30.46,30.33,6,2,8,0.00
2013-1-16,64.0,53.0,43.9,50.6,40.9,32.6,85,65,42,30.35,30.12,4,1,7,0.00
2013-1-17,75.6,59.2,47.8,50.0,33.2,24.4,64,39,16,30.17,30.05,4,1,7,0.00
2013-1-18,75.0,60.2,51.1,45.4,33.4,23.2,47,37,22,30.14,30.05,4,1,5,0.00
2013-1-19,73.9,60.1,50.0,45.5,31.0,18.8,48,34,13,30.19,30.08,4,1,7,0.00
2013-1-20,72.0,58.7,50.4,47.4,33.1,20.2,50,39,19,30.14,30.01,4,1,6,0.00
2013-1-21,75.9,59.1,47.8,51.8,35.3,24.0,61,42,18,30.10,30.00,4,1,5,0.00
2013-1-22,72.5,60.0,50.0,42.9,28.6,18.7,57,31,16,30.10,30.02,4,1,6,0.00
2013-1-23,71.1,63.0,56.5,52.0,36.6,20.8,75,39,22,30.16,30.01,5,1,11,0.00
2013-1-24,69.8,61.1,55.8,58.0,54.2,47.0,95,78,62,30.20,30.10,12,3,17,0.24
2013-1-25,65.5,61.0,58.5,61.5,58.7,55.5,99,92,81,30.12,29.95,13,2,18,0.19
2013-1-26,63.9,58.2,54.5,63.0,57.6,8.4,99,98,13,30.03,29.90,8,1,11,0.04
2013-1-27,61.7,55.6,52.9,54.5,51.2,47.1,98,86,66,30.06,29.99,11,3,16,0.01
2013-1-28,63.3,52.6,43.9,48.9,41.1,33.4,93,67,35,30.19,30.02,8,2,11,0.00
2013-1-29,60.8,51.5,43.7,46.9,41.4,33.4,81,69,55,30.25,30.17,6,1,9,0.00
2013-1-30,66.6,55.4,46.4,52.6,46.0,40.7,87,72,54,30.35,30.22,4,1,5,0.00
2013-1-31,69.1,57.5,47.8,55.3,47.1,40.5,82,69,46,30.25,30.10,4,1,8,0.00
2013-2-1,69.1,58.0,50.4,57.3,50.7,45.3,87,77,60,30.18,30.10,4,1,5,0.00
2013-2-2,68.4,59.6,53.6,57.2,51.7,45.6,85,76,45,30.20,30.09,5,1,8,0.00
2013-2-3,68.0,61.2,53.4,58.3,51.4,44.6,86,71,44,30.14,30.03,8,2,11,0.00
2013-2-4,59.7,53.7,49.6,56.1,51.7,48.8,98,93,83,30.12,30.00,5,1,7,0.00
2013-2-5,56.1,53.4,50.7,53.2,50.9,49.3,99,92,83,30.13,30.00,8,1,10,0.00
2013-2-6,66.0,56.5,50.2,53.3,49.7,47.5,91,78,62,30.12,30.01,6,2,8,0.00
2013-2-7,63.3,54.3,43.9,48.8,43.4,33.4,94,68,33,30.24,30.10,12,3,14,0.00
2013-2-8,59.0,51.3,43.7,50.1,44.2,40.6,91,77,63,30.12,29.99,11,3,17,0.12
2013-2-9,61.5,49.8,40.8,47.8,42.8,39.4,95,78,53,30.20,30.02,7,2,10,0.00
2013-2-10,59.4,52.1,46.0,47.7,43.7,39.6,81,73,63,30.25,30.12,7,3,10,0.00
2013-2-11,64.9,52.6,44.1,51.7,44.5,33.8,89,75,49,30.35,30.16,9,2,13,0.00
2013-2-12,64.2,53.2,44.6,51.0,43.3,35.1,87,70,55,30.45,30.34,4,1,7,0.00
2013-2-13,64.8,53.4,45.3,53.9,47.2,39.9,93,80,66,30.36,30.25,5,1,8,0.00
2013-2-14,66.9,54.8,46.6,57.5,50.4,45.8,98,86,60,30.33,30.16,5,1,7,0.00
2013-2-15,76.8,62.2,49.8,49.6,41.9,24.6,93,52,20,30.28,30.21,5,1,8,0.00
2013-2-16,78.3,64.6,54.3,48.9,33.2,20.1,57,32,16,30.24,30.08,6,1,8,0.00
2013-2-17,63.1,56.1,49.3,53.9,48.3,38.2,86,75,53,30.14,30.04,10,2,12,0.00
2013-2-18,61.2,55.3,52.2,49.8,47.5,44.5,83,75,62,30.17,30.08,10,3,13,0.00
2013-2-19,54.7,52.3,48.9,51.4,45.1,40.1,92,77,63,30.11,29.83,12,4,17,0.18
2013-2-20,61.0,53.0,44.6,45.0,40.5,30.8,80,63,41,30.11,29.82,12,4,17,0.00
2013-2-21,61.7,53.2,48.2,50.9,44.5,41.2,81,72,59,30.20,30.08,9,3,14,0.00
2013-2-22,58.5,48.2,45.7,52.4,44.6,41.9,94,88,74,30.31,30.19,3,1,4,0.00
2013-2-23,63.3,55.4,46.6,54.4,48.0,41.4,95,77,50,30.20,29.99,7,2,11,0.30
2013-2-24,71.4,57.5,46.2,52.0,34.5,18.5,94,52,14,30.25,30.03,15,2,22,0.00
2013-2-25,67.8,55.7,45.7,52.2,42.0,23.1,87,61,32,30.26,30.13,4,1,5,0.00
2013-2-26,67.1,55.3,45.7,55.5,48.6,40.6,98,79,56,30.16,30.04,5,1,6,0.00
2013-2-27,70.2,59.9,50.0,47.4,35.2,18.3,73,41,19,30.31,30.15,11,1,15,0.00
2013-2-28,75.9,61.1,50.4,49.4,34.0,19.6,61,37,19,30.35,30.28,6,1,9,0.00
2013-3-1,82.2,65.8,52.7,45.5,33.6,21.6,49,32,14,30.34,30.20,4,1,8,0.00
2013-3-2,79.2,64.8,55.2,46.8,36.0,30.3,47,35,17,30.25,30.17,4,1,5,0.00
2013-3-3,68.0,58.6,53.6,58.2,51.5,39.3,92,78,47,30.16,30.04,10,1,12,0.00
2013-3-4,68.4,58.9,53.8,56.3,52.6,49.1,93,80,62,30.16,30.07,9,2,12,0.00
2013-3-5,59.7,55.7,52.9,54.4,51.9,49.5,91,87,80,30.19,30.10,11,2,14,0.00
2013-3-6,65.7,57.3,51.1,51.8,48.0,44.1,88,72,54,30.21,30.06,7,2,9,0.00
2013-3-7,60.1,55.7,52.5,54.7,51.2,44.3,97,85,67,30.07,29.91,8,2,10,0.08
2013-3-8,61.0,53.5,47.3,51.4,47.8,43.8,96,82,63,30.09,29.82,12,3,17,0.52
2013-3-9,65.3,55.7,50.4,51.4,47.3,41.7,85,74,57,30.27,30.08,9,3,14,0.00
2013-3-10,69.1,57.3,47.3,56.0,47.3,38.1,90,71,37,30.31,30.20,7,1,10,0.00
2013-3-11,70.0,54.3,48.6,57.2,49.6,43.2,96,85,63,30.23,30.10,4,1,7,0.00
2013-3-12,64.4,54.2,46.9,56.7,52.0,46.5,99,93,75,30.15,30.06,4,1,6,0.00
2013-3-13,61.5,52.7,47.8,56.0,51.5,47.6,99,96,82,30.15,30.08,4,1,6,0.01
2013-3-14,63.0,54.8,49.1,59.4,53.1,48.8,99,94,81,30.15,30.06,4,2,7,0.00
2013-3-15,59.9,54.3,51.6,56.3,52.9,51.3,99,95,86,30.10,30.00,6,2,8,0.00
2013-3-16,62.6,55.3,51.4,54.3,52.3,51.2,99,90,72,30.03,29.96,7,2,9,0.00
2013-3-17,66.7,58.2,54.0,55.2,53.1,51.6,94,83,65,30.06,29.98,6,2,9,0.00
2013-3-18,64.4,58.0,54.0,53.6,52.3,50.9,91,81,67,30.14,30.03,8,2,10,0.00
2013-3-19,69.1,58.7,52.3,56.5,53.2,50.3,95,83,63,30.18,30.09,5,1,8,0.00
2013-3-20,66.9,58.4,52.3,58.6,54.7,51.2,98,88,73,30.15,30.02,4,1,7,0.00
2013-3-21,68.2,59.7,54.3,58.3,54.7,50.7,95,84,69,30.03,29.87,6,2,10,0.00
2013-3-22,59.4,54.9,52.3,54.3,50.6,47.0,93,86,70,30.41,29.86,8,3,13,0.03
2013-3-23,68.5,59.7,55.0,55.9,53.5,52.2,93,80,64,30.30,30.18,7,2,9,0.00
2013-3-24,70.9,60.6,54.3,58.5,55.3,52.1,95,84,62,30.29,30.17,4,1,7,0.00
2013-3-25,69.1,59.1,54.3,59.6,55.7,53.1,98,89,71,30.25,30.17,5,1,7,0.00
2013-3-26,66.0,58.3,54.3,56.6,53.9,51.2,95,86,70,30.25,30.19,7,2,9,0.00
2013-3-27,63.0,58.1,52.3,54.4,51.9,47.0,90,80,70,30.33,30.14,8,3,11,0.01
2013-3-28,70.0,58.7,54.5,57.5,53.6,51.2,90,84,63,30.28,30.21,6,2,8,0.00
2013-3-29,59.4,55.8,52.3,55.9,51.5,47.0,96,86,70,30.20,30.10,7,2,11,0.01
2013-3-30,68.9,59.2,55.4,58.9,55.3,52.6,97,87,68,30.20,30.12,7,1,10,0.00
2013-3-31,66.6,59.9,55.2,59.0,55.9,52.5,95,87,72,30.19,30.12,11,2,14,0.00
2013-4-1,70.7,61.2,55.8,56.7,54.2,52.3,93,79,57,30.23,30.16,4,2,8,0.00
2013-4-2,70.0,60.2,52.3,57.4,52.9,47.0,92,78,58,30.21,30.07,6,2,9,0.01
2013-4-3,69.4,60.1,55.0,58.9,55.1,52.4,92,84,67,30.17,30.07,6,1,8,0.00
2013-4-4,68.7,60.5,56.3,58.4,55.7,54.4,94,85,66,30.19,30.12,4,1,8,0.00
2013-4-5,67.1,59.6,52.3,60.1,54.1,47.0,96,82,69,30.21,30.08,7,2,11,0.01
2013-4-6,69.8,61.5,57.2,58.8,55.9,53.7,90,82,67,30.16,30.04,6,2,8,0.00
2013-4-7,67.5,60.4,55.8,57.1,54.9,52.6,91,82,66,30.05,29.88,6,2,10,0.00
2013-4-8,65.3,59.8,54.1,55.9,51.3,45.9,90,74,59,29.90,29.77,11,4,16,0.00
2013-4-9,70.5,59.3,49.8,55.3,48.0,41.0,84,68,37,30.08,29.88,7,1,8,0.00
2013-4-10,56.3,54.3,52.9,49.2,47.7,46.6,80,78,76,30.09,30.06,4,1,4,0.00
2013-4-11,67.5,59.3,53.6,56.4,48.1,42.9,72,66,56,30.09,29.99,4,1,7,0.00
2013-4-12,70.7,60.6,52.3,56.6,51.7,47.0,83,73,59,30.47,30.13,7,2,11,0.01
2013-4-13,60.4,56.4,52.3,57.6,52.3,47.0,97,86,70,30.38,30.09,8,3,13,0.01
2013-4-14,64.8,56.7,52.3,57.4,51.0,47.0,89,81,70,30.40,30.09,8,2,13,0.01
2013-4-15,62.4,57.6,54.5,56.5,52.8,48.8,93,84,74,30.18,30.10,11,4,14,0.01
2013-4-16,66.2,57.6,52.7,49.7,47.9,44.7,84,71,51,30.24,30.12,11,2,15,0.00
2013-4-17,69.4,61.3,51.1,51.6,37.8,22.1,83,44,21,30.38,30.24,8,2,13,0.00
2013-4-18,75.6,65.6,52.2,45.6,34.5,18.5,64,34,13,30.45,30.35,16,3,21,0.00
2013-4-19,77.4,64.0,52.2,50.2,40.1,29.6,72,43,21,30.41,30.24,5,1,8,0.00
2013-4-20,73.4,62.9,53.4,59.8,54.7,49.0,92,76,61,30.27,30.15,4,1,8,0.00
2013-4-21,69.3,62.7,56.1,60.1,57.3,55.2,97,83,71,30.17,30.10,7,2,8,0.00
2013-4-22,65.7,59.7,57.0,56.2,54.3,52.9,90,82,69,30.16,30.06,8,2,11,0.00
2013-4-23,70.5,61.4,57.6,56.0,53.7,51.8,86,76,57,30.13,30.02,7,2,9,0.00
2013-4-24,64.2,59.2,56.8,60.0,55.3,52.3,97,87,72,30.12,30.04,11,2,14,0.00
2013-4-25,73.8,63.0,57.7,58.1,55.0,52.3,87,76,55,30.27,30.10,7,2,9,0.00
2013-4-26,74.1,63.6,55.0,60.3,56.1,51.2,92,78,58,30.31,30.24,5,2,8,0.00
2013-4-27,71.4,61.9,54.3,61.1,57.3,53.2,98,86,65,30.31,30.15,5,1,7,0.00
2013-4-28,66.9,60.1,58.3,59.3,57.1,55.6,96,90,75,30.17,30.02,6,2,8,0.00
2013-4-29,65.8,60.1,57.4,58.6,56.7,55.0,97,89,75,30.06,29.94,8,2,10,0.00
2013-4-30,67.5,61.0,58.5,58.9,55.8,54.5,89,83,71,30.04,29.97,9,2,11,0.00
2013-5-1,73.6,64.0,59.0,60.9,57.8,55.5,94,81,60,30.24,30.04,4,1,6,0.00
2013-5-2,76.8,65.5,55.9,62.1,58.7,54.5,96,80,56,30.26,30.12,4,2,8,0.00
2013-5-3,84.6,67.5,55.9,65.5,55.5,43.5,88,68,24,30.16,29.93,6,1,8,0.00
2013-5-4,70.0,63.0,59.0,58.9,56.7,52.3,94,80,66,30.01,29.91,8,2,14,0.00
2013-5-5,66.7,61.5,59.2,57.3,55.6,54.1,88,81,70,30.10,29.97,9,2,12,0.00
2013-5-6,68.7,61.9,58.5,62.3,58.5,55.5,99,89,70,30.16,30.05,14,2,19,0.31
2013-5-7,72.7,63.3,58.3,59.9,56.7,52.7,94,80,58,30.22,30.12,9,2,11,0.00
2013-5-8,72.9,64.2,57.4,60.4,57.1,54.6,94,78,59,30.25,30.20,5,2,9,0.00
2013-5-9,68.7,62.5,56.1,61.5,57.1,54.7,96,83,69,30.25,30.18,8,2,11,0.00
2013-5-10,74.7,65.7,58.8,62.2,58.8,55.1,92,79,62,30.24,30.16,7,2,10,0.00
2013-5-11,74.1,64.9,60.8,64.3,61.1,59.0,98,88,68,30.23,30.13,5,2,8,0.00
2013-5-12,73.4,65.9,59.7,67.2,62.5,59.3,99,89,73,30.20,30.05,5,1,8,0.00
2013-5-13,81.0,70.2,61.5,67.0,62.4,58.3,93,77,58,30.12,30.01,5,1,8,0.00
2013-5-14,75.4,66.1,60.4,63.6,59.0,55.9,91,79,62,30.16,30.05,4,2,7,0.00
2013-5-15,69.1,61.5,60.4,58.8,56.6,55.4,88,84,68,30.19,30.09,8,2,12,0.00
2013-5-16,71.1,64.5,60.8,61.3,57.5,54.9,85,78,67,30.13,30.05,8,2,11,0.00
2013-5-17,72.5,65.3,61.2,62.0,59.0,56.0,89,80,64,30.16,30.05,8,2,12,0.00
2013-5-18,70.5,64.5,59.9,61.2,58.3,56.3,89,81,66,30.19,30.12,8,2,11,0.00
2013-5-19,71.2,64.7,60.6,60.8,58.4,56.5,90,80,68,30.13,30.03,8,2,10,0.00
2013-5-20,74.7,65.5,61.0,63.5,60.4,58.1,92,84,66,30.10,30.04,7,2,9,0.00
2013-5-21,71.1,64.9,62.4,63.4,60.5,58.7,93,86,72,30.09,29.99,8,2,11,0.00
2013-5-22,70.5,64.9,62.2,61.2,58.2,56.7,86,79,65,30.00,29.94,11,2,13,0.00
2013-5-23,69.8,63.9,59.2,57.7,56.2,54.5,85,77,63,30.09,29.97,8,2,12,0.00
2013-5-24,67.8,62.8,58.8,56.9,55.0,52.8,84,76,66,30.15,30.05,10,3,14,0.00
2013-5-25,73.0,63.0,56.8,59.3,55.0,51.6,85,76,60,30.18,30.11,9,3,12,0.00
2013-5-26,61.9,60.5,58.8,55.8,55.0,53.9,85,82,80,30.16,30.13,7,3,11,0.00
2013-5-27,69.6,60.5,52.3,60.7,54.1,47.0,86,80,70,30.31,30.05,9,3,13,0.33
2013-5-28,76.3,66.5,61.2,63.1,59.4,56.3,88,78,62,30.07,29.93,8,2,12,0.00
2013-5-29,75.0,66.9,62.4,64.1,61.0,58.7,90,82,68,30.00,29.91,7,2,10,0.00
2013-5-30,72.7,66.5,61.9,63.5,60.7,58.7,90,82,68,30.07,29.94,8,3,11,0.00
2013-5-31,76.1,67.5,62.2,63.2,60.5,58.4,89,79,62,30.08,30.00,7,2,11,0.00
2013-6-1,76.5,67.2,63.0,65.0,61.9,60.0,90,83,66,30.04,29.95,8,2,11,0.00
2013-6-2,67.8,64.2,62.6,62.8,60.6,57.7,93,88,78,30.02,29.94,8,2,11,0.00
2013-6-3,70.0,64.4,62.1,61.7,59.1,57.7,89,83,68,30.08,29.97,11,3,14,0.00
2013-6-4,73.8,65.6,62.1,61.4,58.7,57.1,86,79,64,30.16,30.06,8,2,11,0.00
2013-6-5,75.4,66.7,61.3,61.6,59.3,57.5,87,78,59,30.18,30.09,7,2,11,0.00
2013-6-6,71.8,64.2,60.4,62.2,59.0,56.9,89,83,68,30.14,30.06,4,2,7,0.00
2013-6-7,72.5,63.9,60.4,62.5,59.0,57.2,91,84,67,30.09,29.98,6,1,8,0.00
2013-6-8,67.1,62.1,60.4,60.9,58.8,57.7,94,89,78,30.09,29.97,9,2,14,0.00
2013-6-9,67.6,62.2,60.3,61.4,58.6,56.3,93,88,79,30.11,30.05,9,2,11,0.00
2013-6-10,77.2,67.2,61.2,62.0,58.7,56.0,88,75,55,30.14,30.07,8,2,10,0.00
2013-6-11,74.3,66.3,59.4,65.6,61.3,57.2,94,84,72,30.12,30.06,5,2,8,0.00
2013-6-12,73.4,65.8,61.7,63.7,60.7,59.3,95,84,68,30.20,30.10,5,1,7,0.00
2013-6-13,75.0,66.3,62.8,62.8,60.2,59.0,89,81,63,30.20,30.08,8,2,9,0.00
2013-6-14,70.9,64.1,61.0,61.1,58.6,56.0,90,83,67,30.10,30.04,11,2,14,0.00
2013-6-15,64.2,61.3,60.6,57.5,56.7,56.3,87,85,78,30.14,30.07,6,2,8,0.00
2013-6-16,75.6,65.6,52.3,61.3,56.7,47.0,90,74,57,30.30,30.12,5,2,8,0.33
2013-6-17,76.1,66.7,61.2,63.8,60.5,58.2,92,81,62,30.15,30.06,5,1,7,0.00
2013-6-18,70.9,65.3,61.2,63.6,60.8,58.8,93,85,73,30.09,30.01,8,2,10,0.00
2013-6-19,77.4,68.0,62.4,62.9,60.2,57.2,91,77,58,30.04,29.96,6,1,9,0.00
2013-6-20,76.5,67.8,61.0,64.7,61.6,58.3,93,81,65,30.04,29.95,6,2,9,0.00
2013-6-21,72.3,67.3,63.0,63.6,61.7,59.7,92,83,71,30.08,29.99,8,2,10,0.00
2013-6-22,73.4,66.4,62.8,62.0,60.2,58.2,91,81,65,30.10,29.99,9,2,11,0.00
2013-6-23,70.3,65.1,62.2,60.7,59.0,57.7,89,81,67,30.05,29.98,9,2,11,0.00
2013-6-24,74.5,65.5,61.5,63.7,60.7,56.7,95,85,67,30.11,29.99,7,2,9,0.07
2013-6-25,74.3,67.6,63.7,66.4,63.2,60.4,94,86,74,30.17,30.07,7,2,10,0.00
2013-6-26,74.3,67.3,63.0,66.2,63.9,60.9,96,89,74,30.16,30.07,8,2,9,0.00
2013-6-27,72.7,67.3,63.1,66.7,64.6,62.3,98,91,79,30.19,30.13,7,2,11,0.00
2013-6-28,77.0,68.6,62.6,69.7,65.1,61.8,99,89,72,30.17,30.03,4,1,6,0.00
2013-6-29,76.5,69.2,63.9,71.8,66.1,63.0,99,90,76,30.05,29.90,4,1,6,0.00
2013-6-30,76.8,69.6,65.1,70.9,66.7,64.3,98,91,79,29.97,29.86,5,1,10,0.00
2013-7-1,79.9,69.8,65.3,70.1,66.6,64.7,98,90,70,30.05,29.96,5,1,7,0.00
2013-7-2,72.0,67.8,65.5,67.7,65.5,63.9,99,92,83,30.17,30.03,8,2,11,0.00
2013-7-3,75.2,68.3,65.3,68.4,65.9,64.7,98,92,76,30.09,29.99,4,1,7,0.00
2013-7-4,77.0,68.0,63.9,66.8,63.8,62.1,97,87,68,29.99,29.93,6,1,8,0.00
2013-7-5,75.4,68.1,65.1,66.2,63.4,62.1,91,85,72,30.01,29.93,7,2,8,0.00
2013-7-6,73.2,68.1,66.0,66.7,63.9,62.9,92,87,77,29.99,29.92,5,2,8,0.00
2013-7-7,78.3,70.0,65.3,67.9,65.0,62.9,94,85,68,30.01,29.93,4,1,6,0.00
2013-7-8,77.5,68.5,63.5,68.7,64.7,61.4,97,88,70,30.08,30.00,4,1,7,0.00
2013-7-9,77.5,68.9,63.7,69.2,64.6,61.5,97,87,71,30.17,30.04,7,1,9,0.00
2013-7-10,74.5,69.4,66.6,69.5,66.7,64.5,96,91,82,30.13,30.05,4,1,7,0.00
2013-7-11,68.2,67.8,67.1,66.4,65.9,65.0,94,93,93,30.08,30.05,6,1,8,0.00
2013-7-12,81.1,71.8,66.7,69.0,65.8,63.7,94,82,64,30.09,30.01,4,2,7,0.00
2013-7-13,78.6,70.6,66.0,68.1,64.5,62.9,91,82,64,30.11,30.02,4,1,7,0.00
2013-7-14,80.4,70.9,65.5,69.7,65.7,62.8,93,84,66,30.08,29.99,6,1,8,0.00
2013-7-15,81.7,71.4,65.7,68.6,65.5,62.6,93,82,64,30.03,29.96,5,2,8,0.00
2013-7-16,79.0,69.7,61.9,66.6,63.2,59.9,95,81,62,30.14,30.00,4,1,8,0.00
2013-7-17,78.3,69.5,61.0,67.1,63.5,59.1,96,82,65,30.18,30.11,5,2,9,0.00
2013-7-18,78.6,68.4,62.1,65.8,62.9,60.3,95,84,63,30.15,30.02,5,1,8,0.00
2013-7-19,73.8,66.6,62.8,66.1,62.9,60.4,96,88,75,30.07,30.00,7,2,9,0.00
2013-7-20,71.1,66.1,64.4,65.3,62.9,61.8,93,89,80,30.04,29.96,7,1,10,0.00
2013-7-21,70.0,66.8,64.9,66.4,63.8,62.6,95,90,83,30.09,29.94,8,1,10,0.00
2013-7-22,79.7,69.9,64.4,68.8,64.9,62.7,95,85,66,30.14,30.06,5,1,7,0.00
2013-7-23,78.4,69.5,65.1,67.2,64.5,63.1,93,85,65,30.19,30.09,5,2,8,0.00
2013-7-24,73.9,67.3,62.8,65.8,63.1,60.7,95,87,74,30.14,30.05,6,2,9,0.00
2013-7-25,78.4,67.9,63.3,65.6,63.0,61.6,95,85,63,30.18,30.08,5,1,8,0.00
2013-7-26,77.7,68.0,64.4,68.1,64.4,63.0,96,89,68,30.24,30.14,4,1,8,0.00
2013-7-27,73.6,66.2,63.3,67.0,63.0,60.6,97,90,74,30.17,30.05,6,1,8,0.00
2013-7-28,73.8,65.4,61.7,64.6,61.7,59.4,97,88,72,30.09,30.04,5,1,8,0.00
2013-7-29,74.8,66.3,61.7,62.5,59.7,58.0,90,80,63,30.20,30.07,7,2,9,0.00
2013-7-30,77.0,67.2,60.8,62.9,59.9,57.6,91,78,59,30.28,30.19,5,2,8,0.00
2013-7-31,75.0,66.2,60.3,63.4,60.1,57.6,93,81,66,30.27,30.16,5,2,8,0.00
2013-8-1,77.4,68.0,62.6,64.6,60.6,57.9,89,78,61,30.18,30.08,6,2,8,0.00
2013-8-2,76.5,67.4,62.6,63.4,60.5,58.7,88,79,62,30.13,30.08,5,1,8,0.00
2013-8-3,77.2,67.1,63.3,64.6,61.0,58.9,89,81,63,30.16,30.09,6,1,9,0.00
2013-8-4,77.0,67.6,61.7,64.3,61.1,58.7,92,80,62,30.18,30.09,6,2,8,0.00
2013-8-5,75.2,65.8,60.6,64.5,60.7,58.5,96,84,65,30.17,30.09,4,1,7,0.00
2013-8-6,75.2,66.4,62.1,63.0,60.2,58.4,91,81,65,30.20,30.12,8,2,9,0.00
2013-8-7,75.9,66.8,61.9,63.1,60.5,58.7,92,81,62,30.25,30.14,5,1,8,0.00
2013-8-8,76.6,65.8,60.3,63.6,60.5,58.1,94,84,64,30.17,30.07,5,1,8,0.00
2013-8-9,71.8,65.3,61.7,62.2,59.8,58.7,92,83,69,30.14,30.07,8,2,10,0.00
2013-8-10,73.8,65.7,61.5,61.4,59.0,57.3,89,79,62,30.20,30.12,7,2,10,0.00
2013-8-11,75.9,67.0,62.6,62.9,60.6,58.7,90,80,62,30.15,30.06,5,1,7,0.00
2013-8-12,73.2,66.1,62.2,63.9,60.9,59.5,92,84,67,30.14,30.06,8,2,9,0.00
2013-8-13,75.0,65.9,62.4,66.0,61.8,60.1,94,87,72,30.14,30.04,6,1,8,0.00
2013-8-14,72.7,65.0,62.6,66.0,61.8,60.2,95,90,75,30.09,30.01,6,2,8,0.00
2013-8-15,73.0,67.0,62.6,66.4,63.0,61.1,97,87,76,30.10,30.04,5,1,8,0.00
2013-8-16,78.8,67.7,62.6,67.7,63.8,60.6,97,88,67,30.12,30.06,5,1,7,0.00
2013-8-17,73.4,67.0,63.0,67.2,63.2,60.3,96,88,73,30.11,29.99,5,1,8,0.00
2013-8-18,71.6,66.0,62.6,65.3,62.4,60.6,95,88,74,30.07,29.99,7,2,9,0.00
2013-8-19,75.7,67.4,64.8,65.8,63.1,61.1,93,86,67,30.12,30.03,7,1,9,0.00
2013-8-20,75.2,67.4,63.1,66.4,62.8,60.8,92,86,70,30.10,30.03,5,2,8,0.00
2013-8-21,73.4,65.3,52.7,64.3,59.4,47.0,95,82,70,30.38,29.99,6,2,9,0.40
2013-8-22,75.6,68.0,61.0,65.7,61.7,57.9,92,81,65,30.16,30.05,5,2,8,0.00
2013-8-23,75.2,67.3,61.2,65.6,61.8,58.5,92,83,68,30.12,29.98,4,1,8,0.00
2013-8-24,74.3,63.8,59.9,65.6,60.8,58.5,98,90,70,30.12,30.01,4,1,6,0.00
2013-8-25,74.1,64.5,58.5,65.5,61.1,57.9,98,89,71,30.16,30.07,4,1,6,0.00
2013-8-26,77.2,68.0,61.9,67.4,62.2,58.3,90,82,65,30.16,30.05,5,1,8,0.00
2013-8-27,80.4,70.2,63.9,68.6,64.0,61.2,94,81,65,30.09,30.01,4,1,6,0.00
2013-8-28,77.4,69.7,63.0,68.1,63.6,60.4,95,81,67,30.13,30.00,5,1,8,0.00
2013-8-29,80.4,71.4,63.7,68.2,63.5,60.4,93,77,57,30.16,30.10,4,1,6,0.00
2013-8-30,86.2,72.0,52.3,70.8,62.9,47.0,83,73,58,30.35,30.12,5,1,7,0.40
2013-8-31,84.7,76.4,72.0,72.0,67.5,63.1,88,75,54,30.18,30.10,4,1,6,0.00
2013-9-1,81.1,72.9,67.1,70.7,67.7,66.2,98,84,66,30.15,30.07,8,2,11,0.00
2013-9-2,75.4,68.7,64.0,69.2,66.4,63.2,99,93,78,30.14,30.02,8,2,9,0.00
2013-9-3,80.4,71.6,66.2,70.8,67.2,65.0,97,86,71,30.12,30.02,6,2,8,0.00
2013-9-4,79.0,72.7,67.5,70.4,66.5,63.9,93,82,61,30.12,30.04,8,2,11,0.00
2013-9-5,78.1,72.5,67.8,69.0,65.4,63.3,90,79,64,30.11,30.04,7,2,10,0.00
2013-9-6,79.5,73.0,68.5,71.8,65.7,62.1,85,78,65,30.08,30.00,8,2,9,0.00
2013-9-7,80.1,71.4,66.7,70.7,65.8,62.3,89,83,72,30.08,30.02,7,2,9,0.00
2013-9-8,75.2,68.1,63.3,68.4,63.9,61.3,95,87,73,30.07,29.97,8,2,11,0.00
2013-9-9,73.6,66.3,62.8,67.7,62.4,60.3,95,88,74,30.04,29.97,8,2,11,0.00
2013-9-10,75.0,67.3,62.6,64.8,61.6,58.5,92,82,67,30.16,30.02,6,2,8,0.00
2013-9-11,73.9,66.8,62.8,64.0,61.2,58.5,90,82,68,30.22,30.13,8,2,9,0.00
2013-9-12,73.0,66.4,60.1,65.1,62.1,58.4,95,86,74,30.15,30.02,7,2,10,0.00
2013-9-13,74.8,65.4,59.7,67.2,62.4,58.1,98,90,75,30.05,29.87,7,2,9,0.00
2013-9-14,73.4,65.2,61.0,67.3,62.8,59.6,99,92,80,29.93,29.84,8,1,11,0.00
2013-9-15,65.3,64.3,62.4,65.0,63.8,61.1,99,98,96,29.96,29.90,4,0,5,0.00
2013-9-16,75.4,69.6,63.0,68.2,64.5,61.2,97,84,73,30.16,29.91,8,2,10,0.00
2013-9-17,71.1,65.9,63.1,64.3,62.4,60.8,96,89,75,30.17,30.08,8,2,11,0.00
2013-9-18,72.9,67.5,63.7,63.2,60.9,59.0,90,80,67,30.16,30.08,8,2,10,0.00
2013-9-19,74.1,67.4,61.9,64.8,62.1,59.4,94,84,70,30.17,30.10,8,2,10,0.00
2013-9-20,68.4,64.8,52.3,64.9,60.4,47.0,95,86,70,30.45,30.13,7,2,8,0.69
2013-9-21,74.7,68.4,62.8,63.5,61.6,59.2,91,79,66,30.22,30.12,9,3,13,0.00
2013-9-22,75.0,67.1,62.1,64.0,59.1,50.7,90,76,58,30.16,30.10,8,2,10,0.00
2013-9-23,78.1,68.7,59.4,64.6,56.8,50.2,78,66,45,30.20,30.10,6,1,8,0.00
2013-9-24,79.9,70.1,61.9,67.8,60.5,53.1,90,72,51,30.25,30.15,6,1,8,0.00
2013-9-25,73.4,68.0,64.8,65.3,62.6,58.6,94,83,71,30.16,30.01,13,3,17,0.00
2013-9-26,75.0,66.6,61.5,61.6,57.4,54.3,82,73,58,30.18,30.02,12,4,17,0.00
2013-9-27,77.2,67.5,58.1,63.0,53.3,37.3,88,63,32,30.29,30.17,9,2,14,0.00
2013-9-28,81.0,69.3,59.9,61.4,48.4,36.7,72,48,23,30.35,30.26,8,2,9,0.00
2013-9-29,77.7,67.9,59.4,65.1,56.2,46.5,86,67,52,30.37,30.28,7,2,9,0.00
2013-9-30,75.7,66.1,59.2,65.9,62.1,57.8,97,88,70,30.31,30.16,4,1,8,0.00
2013-10-1,74.3,67.0,60.8,65.6,62.2,58.8,95,85,72,30.25,30.17,8,2,10,0.00
2013-10-2,71.1,66.4,64.0,61.7,60.1,57.9,87,80,70,30.28,30.19,9,3,10,0.00
2013-10-3,70.7,66.1,64.0,63.2,60.8,57.4,88,83,75,30.23,30.14,11,3,14,0.00
2013-10-4,75.2,67.8,60.6,65.0,61.4,57.9,91,80,66,30.33,30.18,7,2,8,0.00
2013-10-5,86.4,73.8,60.6,59.8,42.4,18.3,91,36,12,30.41,30.31,11,2,17,0.00
2013-10-6,84.4,71.8,61.0,63.3,47.3,20.4,69,43,15,30.38,30.25,8,2,11,0.00
2013-10-7,76.1,67.4,61.7,67.1,58.6,41.0,91,74,39,30.29,30.22,8,2,11,0.00
2013-10-8,69.1,64.1,60.6,61.2,57.8,52.4,93,80,69,30.24,30.12,11,3,15,0.00
2013-10-9,64.4,58.8,52.3,56.0,52.0,47.0,93,78,66,30.49,30.07,22,6,27,0.44
2013-10-10,69.1,60.5,52.3,55.0,52.1,48.9,89,74,59,30.36,30.14,10,3,15,0.00
2013-10-11,70.7,62.7,54.3,60.7,55.5,48.7,87,77,63,30.39,30.29,11,3,16,0.00
2013-10-12,72.1,63.6,57.6,63.9,59.2,54.0,98,86,69,30.33,30.24,9,2,11,0.00
2013-10-13,66.6,62.4,57.4,59.4,56.9,54.0,91,82,71,30.37,30.27,8,3,11,0.00
2013-10-14,72.3,63.4,55.4,63.7,58.5,53.4,96,85,71,30.37,30.24,8,2,10,0.00
2013-10-15,77.2,65.9,55.8,66.2,55.6,43.7,87,71,35,30.31,30.22,4,1,7,0.00
2013-10-16,81.0,69.6,59.4,58.4,43.6,25.4,72,42,19,30.40,30.31,5,2,8,0.00
2013-10-17,74.1,66.2,58.6,61.5,48.6,32.3,80,54,31,30.38,30.28,7,1,10,0.00
2013-10-18,73.8,64.8,56.5,65.0,57.6,49.9,91,78,63,30.36,30.27,7,2,11,0.00
2013-10-19,67.8,62.4,57.4,64.4,58.7,51.7,95,88,72,30.37,30.30,8,2,9,0.00
2013-10-20,70.9,62.8,55.6,64.5,59.5,55.3,99,89,72,30.34,30.25,6,2,8,0.00
2013-10-21,69.8,62.6,57.9,60.7,58.4,56.1,95,87,71,30.34,30.25,8,2,9,0.00
2013-10-22,69.6,62.1,56.7,61.2,58.8,56.1,99,90,74,30.35,30.25,9,3,11,0.00
2013-10-23,69.4,63.3,60.6,58.8,57.2,55.9,89,81,66,30.32,30.25,7,2,9,0.00
2013-10-24,69.6,63.6,60.8,59.9,56.9,54.6,85,79,67,30.40,30.30,9,3,11,0.00
2013-10-25,69.3,63.4,60.3,60.2,57.9,56.0,93,82,71,30.47,30.35,8,3,11,0.00
2013-10-26,64.6,60.4,56.3,61.9,58.9,55.2,99,95,89,30.44,30.30,8,2,10,0.00
2013-10-27,67.5,61.8,57.4,61.9,59.3,57.1,99,92,78,30.33,30.17,7,2,9,0.00
2013-10-28,63.7,61.2,58.1,59.1,54.4,50.6,94,78,71,30.28,30.17,17,6,20,0.00
2013-10-29,66.7,60.3,54.9,55.6,52.1,49.0,84,75,59,30.35,30.26,7,3,10,0.00
2013-10-30,69.1,61.1,54.9,57.3,53.6,49.0,85,77,65,30.41,30.33,7,2,8,0.00
2013-10-31,70.7,61.1,52.7,58.0,51.8,46.3,87,72,53,30.43,30.33,5,2,7,0.00
2013-11-1,74.7,64.0,55.6,58.8,49.2,41.0,76,59,33,30.43,30.28,8,2,9,0.00
2013-11-2,72.0,64.2,58.1,64.2,54.8,41.5,92,73,48,30.34,30.23,7,2,12,0.00
2013-11-3,68.7,62.9,58.6,59.7,56.4,52.4,93,79,71,30.28,30.17,9,2,12,0.00
2013-11-4,65.7,61.0,55.4,56.9,52.7,50.4,85,74,65,30.29,30.14,11,2,14,0.00
2013-11-5,71.1,61.4,54.0,60.5,48.1,22.2,97,67,25,30.47,30.28,8,2,10,0.00
2013-11-6,74.1,63.3,54.3,59.3,37.1,18.9,69,39,24,30.54,30.42,7,2,8,0.00
2013-11-7,77.5,65.8,56.8,62.6,41.3,22.8,74,42,23,30.45,30.33,6,2,10,0.00
2013-11-8,69.6,62.2,55.4,61.2,53.4,40.9,98,74,45,30.39,30.28,5,2,8,0.00
2013-11-9,70.3,60.2,52.3,60.0,55.7,51.8,99,87,61,30.42,30.34,6,2,8,0.00
2013-11-10,72.0,61.9,54.9,60.2,52.9,44.8,89,73,40,30.48,30.37,7,2,10,0.00
2013-11-11,70.9,61.6,53.6,61.9,56.3,50.4,93,83,67,30.48,30.37,5,2,8,0.00
2013-11-12,69.3,62.5,56.1,62.1,57.1,51.0,96,83,70,30.51,30.39,7,1,12,0.00
2013-11-13,78.1,67.2,57.7,63.7,52.2,40.3,81,60,32,30.39,30.23,7,1,8,0.00
2013-11-14,77.7,67.2,60.4,60.8,51.3,39.9,97,58,36,30.27,30.12,8,1,13,0.00
2013-11-15,68.9,62.9,59.4,61.8,58.1,55.7,99,85,73,30.13,29.84,10,3,16,0.00
2013-11-16,68.4,62.1,58.6,57.2,53.6,50.7,92,74,58,30.29,30.10,11,3,15,0.00
2013-11-17,67.3,61.2,54.9,58.4,54.2,47.1,86,78,67,30.38,29.87,14,3,18,1.12
2013-11-18,67.8,63.2,55.6,60.7,57.7,55.0,99,83,72,30.24,30.13,9,4,13,0.00
2013-11-19,67.3,61.8,58.3,57.9,55.6,54.3,88,80,66,30.17,30.04,7,2,9,0.00
2013-11-20,69.6,62.1,57.2,60.6,57.0,53.6,98,84,72,30.07,29.97,8,2,10,0.07
2013-11-21,65.1,60.3,57.0,60.8,58.3,54.3,99,93,83,29.98,29.92,20,5,24,0.14
2013-11-22,61.9,57.5,54.3,55.2,48.7,41.2,96,74,55,30.03,29.91,14,4,18,0.00
2013-11-23,67.6,59.6,54.3,50.9,46.6,41.1,76,62,51,30.17,30.02,11,4,14,0.00
2013-11-24,67.5,59.0,51.4,55.5,50.0,44.5,82,72,61,30.27,30.16,7,2,11,0.00
2013-11-25,69.3,59.7,51.8,57.6,49.6,42.5,82,70,52,30.32,30.25,8,2,11,0.00
2013-11-26,69.6,61.2,52.9,58.5,49.7,31.7,83,67,25,30.28,30.12,8,2,11,0.00
2013-11-27,72.3,63.2,56.1,55.4,46.8,39.2,83,56,38,30.12,29.97,10,1,12,0.00
2013-11-28,68.4,60.2,53.4,59.3,53.0,44.6,88,77,66,30.14,29.97,4,1,6,0.00
2013-11-29,64.2,59.5,56.3,58.5,55.3,52.6,91,86,80,30.26,30.13,8,2,14,0.11
2013-11-30,70.3,61.5,55.2,59.8,54.6,49.7,95,79,60,30.26,30.16,8,2,9,0.00
2013-12-1,70.9,59.7,52.3,59.7,49.2,38.1,83,69,43,30.29,30.12,5,1,7,1.44
2013-12-2,70.7,61.6,54.9,57.8,48.8,38.0,82,63,43,30.16,29.95,4,1,6,0.00
2013-12-3,65.8,59.7,54.9,58.8,54.7,49.8,90,83,74,29.95,29.80,14,3,21,0.00
2013-12-4,63.1,56.2,50.0,50.6,43.3,38.0,79,63,42,30.01,29.84,16,4,21,0.00
2013-12-5,62.4,54.9,49.6,44.6,41.3,37.9,73,60,47,30.14,29.98,10,4,13,0.00
2013-12-6,61.3,54.5,51.1,45.3,40.8,38.0,65,60,51,30.22,30.13,12,5,15,0.00
2013-12-7,59.2,54.0,49.3,54.9,44.8,38.4,92,71,58,30.16,30.05,15,5,22,0.20
2013-12-8,57.6,50.6,43.5,42.6,38.3,31.3,75,63,49,30.24,30.14,10,4,13,0.00
2013-12-9,63.3,52.1,45.1,34.7,21.5,9.2,60,31,20,30.31,30.20,8,3,14,0.00
2013-12-10,65.8,54.3,45.9,44.2,34.4,13.4,63,47,25,30.29,30.12,6,2,8,0.00
2013-12-11,66.7,56.1,48.0,52.7,43.3,32.6,83,63,44,30.20,30.11,5,2,6,0.00
2013-12-12,64.8,57.1,51.6,56.2,50.4,42.7,94,79,52,30.26,30.17,7,2,9,0.00
2013-12-13,64.2,56.3,49.3,57.5,52.1,48.6,99,87,71,30.27,30.17,5,2,7,0.00
2013-12-14,71.4,60.0,48.4,57.4,40.7,22.3,95,53,21,30.33,30.20,7,2,8,0.00
2013-12-15,74.1,61.1,53.8,56.5,41.3,21.7,73,50,26,30.27,30.10,5,1,8,0.00
2013-12-16,75.0,63.9,56.3,56.2,44.3,33.0,66,49,30,30.16,30.07,5,1,7,0.00
2013-12-17,74.3,63.9,56.8,57.4,47.5,38.4,84,56,29,30.17,30.04,5,1,8,0.00
2013-12-18,69.1,60.9,56.7,60.9,54.5,46.4,95,80,54,30.05,29.90,14,3,17,0.00
2013-12-19,57.7,53.8,47.7,52.6,48.9,44.7,93,83,76,29.92,29.77,14,5,17,0.06
2013-12-20,63.5,54.6,46.6,53.9,48.9,43.3,95,81,68,29.99,29.80,8,2,10,0.00
2013-12-21,64.2,56.2,52.0,54.6,49.9,47.0,87,80,69,30.12,29.95,10,2,13,0.00
2013-12-22,66.0,56.3,50.2,55.5,51.0,46.8,93,83,67,30.29,30.11,7,2,9,0.00
2013-12-23,71.6,59.6,50.5,55.6,47.6,40.2,92,67,38,30.35,30.21,7,2,13,0.00
2013-12-24,68.7,59.7,53.2,58.0,48.2,40.8,86,66,54,30.24,30.12,5,1,8,0.00
2013-12-25,77.5,65.1,54.0,49.6,35.4,16.9,62,36,13,30.23,30.13,14,2,18,0.00
2013-12-26,76.6,63.6,56.3,49.6,29.6,18.9,55,29,14,30.20,30.10,8,2,9,0.00
2013-12-27,72.7,61.4,52.5,57.2,32.7,16.9,72,36,19,30.20,30.08,7,2,8,0.00
2013-12-28,67.3,59.2,54.7,57.4,44.9,24.4,97,63,28,30.10,29.98,9,2,11,0.00
2013-12-29,70.3,57.2,49.3,58.3,47.3,20.6,99,75,21,30.18,30.03,7,2,11,0.01
2013-12-30,72.0,59.1,50.9,46.3,33.3,20.6,63,39,16,30.30,30.17,4,2,7,0.00
2013-12-31,65.8,56.1,48.9,57.8,49.6,39.6,93,79,63,30.25,30.13,5,1,6,0.00
2014-1-1,64.9,56.0,50.0,60.0,53.1,48.1,99,90,77,30.19,30.07,7,1,9,0.00
2014-1-2,65.3,56.0,48.7,59.5,52.7,47.4,96,89,79,30.14,30.03,5,1,6,0.00